sensor_id;sensor_type;location;lat;lon;timestamp;P1;durP1;ratioP1;P2;durP2;ratioP2
4027;SDS011;2028;51.346;12.396;2024-02-26T00:00:44;11.40;;;10.15;;
4027;SDS011;2028;51.346;12.396;2024-02-26T00:03:11;14.75;;;12.32;;
4027;SDS011;2028;51.346;12.396;2024-02-26T00:05:38;15.32;;;13.82;;
4027;SDS011;2028;51.346;12.396;2024-02-26T00:08:04;13.75;;;12.45;;
4027;SDS011;2028;51.346;12.396;2024-02-26T00:10:30;13.65;;;12.35;;
4027;SDS011;2028;51.346;12.396;2024-02-26T00:12:57;13.60;;;12.20;;
4027;SDS011;2028;51.346;12.396;2024-02-26T00:15:23;14.27;;;12.98;;
4027;SDS011;2028;51.346;12.396;2024-02-26T00:17:50;14.43;;;12.40;;
4027;SDS011;2028;51.346;12.396;2024-02-26T00:20:16;13.45;;;12.15;;
4027;SDS011;2028;51.346;12.396;2024-02-26T00:22:42;15.77;;;14.27;;
4027;SDS011;2028;51.346;12.396;2024-02-26T00:25:08;15.50;;;14.02;;
4027;SDS011;2028;51.346;12.396;2024-02-26T00:27:34;14.98;;;13.57;;
4027;SDS011;2028;51.346;12.396;2024-02-26T00:30:01;16.20;;;14.70;;
4027;SDS011;2028;51.346;12.396;2024-02-26T00:32:27;15.68;;;14.18;;
4027;SDS011;2028;51.346;12.396;2024-02-26T00:34:53;15.90;;;14.32;;
4027;SDS011;2028;51.346;12.396;2024-02-26T00:37:19;15.85;;;14.40;;
4027;SDS011;2028;51.346;12.396;2024-02-26T00:39:45;16.05;;;14.45;;
4027;SDS011;2028;51.346;12.396;2024-02-26T00:42:12;16.70;;;15.10;;
4027;SDS011;2028;51.346;12.396;2024-02-26T00:44:38;17.33;;;15.48;;
4027;SDS011;2028;51.346;12.396;2024-02-26T00:47:05;17.65;;;16.02;;
4027;SDS011;2028;51.346;12.396;2024-02-26T00:49:31;17.60;;;15.80;;
4027;SDS011;2028;51.346;12.396;2024-02-26T00:51:57;16.75;;;15.07;;
4027;SDS011;2028;51.346;12.396;2024-02-26T00:54:23;18.35;;;16.33;;
4027;SDS011;2028;51.346;12.396;2024-02-26T00:56:49;17.73;;;16.10;;
4027;SDS011;2028;51.346;12.396;2024-02-26T00:59:16;17.52;;;15.82;;
4027;SDS011;2028;51.346;12.396;2024-02-26T01:01:42;18.48;;;16.65;;
4027;SDS011;2028;51.346;12.396;2024-02-26T01:04:08;18.70;;;16.80;;
4027;SDS011;2028;51.346;12.396;2024-02-26T01:06:35;17.63;;;16.02;;
4027;SDS011;2028;51.346;12.396;2024-02-26T01:09:01;19.33;;;17.48;;
4027;SDS011;2028;51.346;12.396;2024-02-26T01:11:27;20.08;;;18.10;;
4027;SDS011;2028;51.346;12.396;2024-02-26T01:13:54;19.85;;;17.88;;
4027;SDS011;2028;51.346;12.396;2024-02-26T01:16:24;19.30;;;17.40;;
4027;SDS011;2028;51.346;12.396;2024-02-26T01:18:50;19.15;;;17.25;;
4027;SDS011;2028;51.346;12.396;2024-02-26T01:21:17;20.55;;;18.55;;
4027;SDS011;2028;51.346;12.396;2024-02-26T01:23:43;18.95;;;17.20;;
4027;SDS011;2028;51.346;12.396;2024-02-26T01:26:09;19.85;;;18.00;;
4027;SDS011;2028;51.346;12.396;2024-02-26T01:28:36;19.48;;;17.58;;
4027;SDS011;2028;51.346;12.396;2024-02-26T01:31:02;20.83;;;18.75;;
4027;SDS011;2028;51.346;12.396;2024-02-26T01:33:31;20.58;;;18.67;;
4027;SDS011;2028;51.346;12.396;2024-02-26T01:35:58;19.15;;;17.25;;
4027;SDS011;2028;51.346;12.396;2024-02-26T01:38:26;20.92;;;18.92;;
4027;SDS011;2028;51.346;12.396;2024-02-26T01:40:53;21.02;;;19.02;;
4027;SDS011;2028;51.346;12.396;2024-02-26T01:43:19;20.17;;;18.15;;
4027;SDS011;2028;51.346;12.396;2024-02-26T01:45:45;20.10;;;18.08;;
4027;SDS011;2028;51.346;12.396;2024-02-26T01:48:11;19.58;;;17.75;;
4027;SDS011;2028;51.346;12.396;2024-02-26T01:50:38;19.52;;;17.63;;
4027;SDS011;2028;51.346;12.396;2024-02-26T01:53:05;20.98;;;18.98;;
4027;SDS011;2028;51.346;12.396;2024-02-26T01:55:34;19.00;;;17.15;;
4027;SDS011;2028;51.346;12.396;2024-02-26T01:58:00;18.98;;;17.17;;
4027;SDS011;2028;51.346;12.396;2024-02-26T02:00:27;20.17;;;18.25;;
4027;SDS011;2028;51.346;12.396;2024-02-26T02:02:53;19.67;;;17.83;;
4027;SDS011;2028;51.346;12.396;2024-02-26T02:05:20;18.92;;;17.13;;
4027;SDS011;2028;51.346;12.396;2024-02-26T02:07:47;20.38;;;18.38;;
4027;SDS011;2028;51.346;12.396;2024-02-26T02:10:14;20.52;;;18.52;;
4027;SDS011;2028;51.346;12.396;2024-02-26T02:12:41;19.95;;;17.95;;
4027;SDS011;2028;51.346;12.396;2024-02-26T02:15:07;19.20;;;17.30;;
4027;SDS011;2028;51.346;12.396;2024-02-26T02:17:33;19.58;;;17.58;;
4027;SDS011;2028;51.346;12.396;2024-02-26T02:19:59;18.92;;;16.92;;
4027;SDS011;2028;51.346;12.396;2024-02-26T02:22:26;18.35;;;16.50;;
4027;SDS011;2028;51.346;12.396;2024-02-26T02:24:52;18.35;;;16.55;;
4027;SDS011;2028;51.346;12.396;2024-02-26T02:27:19;18.45;;;16.65;;
4027;SDS011;2028;51.346;12.396;2024-02-26T02:29:46;18.50;;;16.60;;
4027;SDS011;2028;51.346;12.396;2024-02-26T02:32:13;17.63;;;16.02;;
4027;SDS011;2028;51.346;12.396;2024-02-26T02:34:40;16.90;;;15.30;;
4027;SDS011;2028;51.346;12.396;2024-02-26T02:37:06;16.98;;;15.35;;
4027;SDS011;2028;51.346;12.396;2024-02-26T02:39:33;17.48;;;15.80;;
4027;SDS011;2028;51.346;12.396;2024-02-26T02:41:59;16.33;;;14.82;;
4027;SDS011;2028;51.346;12.396;2024-02-26T02:44:25;15.93;;;14.48;;
4027;SDS011;2028;51.346;12.396;2024-02-26T02:46:51;15.75;;;14.10;;
4027;SDS011;2028;51.346;12.396;2024-02-26T02:49:18;14.77;;;13.38;;
4027;SDS011;2028;51.346;12.396;2024-02-26T02:51:45;15.77;;;14.32;;
4027;SDS011;2028;51.346;12.396;2024-02-26T02:54:10;15.30;;;13.80;;
4027;SDS011;2028;51.346;12.396;2024-02-26T02:56:37;14.77;;;13.38;;
4027;SDS011;2028;51.346;12.396;2024-02-26T02:59:03;16.17;;;14.67;;
4027;SDS011;2028;51.346;12.396;2024-02-26T03:01:29;16.45;;;14.95;;
4027;SDS011;2028;51.346;12.396;2024-02-26T03:03:55;15.90;;;14.40;;
4027;SDS011;2028;51.346;12.396;2024-02-26T03:06:22;16.35;;;14.25;;
4027;SDS011;2028;51.346;12.396;2024-02-26T03:08:48;15.07;;;13.68;;
4027;SDS011;2028;51.346;12.396;2024-02-26T03:11:14;14.68;;;13.38;;
4027;SDS011;2028;51.346;12.396;2024-02-26T03:13:41;16.15;;;14.55;;
4027;SDS011;2028;51.346;12.396;2024-02-26T03:16:07;17.23;;;15.63;;
4027;SDS011;2028;51.346;12.396;2024-02-26T03:18:33;18.17;;;16.48;;
4027;SDS011;2028;51.346;12.396;2024-02-26T03:20:59;18.40;;;16.80;;
4027;SDS011;2028;51.346;12.396;2024-02-26T03:23:26;18.15;;;16.45;;
4027;SDS011;2028;51.346;12.396;2024-02-26T03:25:52;19.45;;;17.65;;
4027;SDS011;2028;51.346;12.396;2024-02-26T03:28:18;19.55;;;17.80;;
4027;SDS011;2028;51.346;12.396;2024-02-26T03:30:45;19.40;;;17.58;;
4027;SDS011;2028;51.346;12.396;2024-02-26T03:33:11;19.17;;;17.27;;
4027;SDS011;2028;51.346;12.396;2024-02-26T03:35:37;20.00;;;18.07;;
4027;SDS011;2028;51.346;12.396;2024-02-26T03:38:03;18.93;;;17.07;;
4027;SDS011;2028;51.346;12.396;2024-02-26T03:40:29;22.13;;;20.02;;
4027;SDS011;2028;51.346;12.396;2024-02-26T03:42:55;24.10;;;21.63;;
4027;SDS011;2028;51.346;12.396;2024-02-26T03:45:22;22.85;;;20.75;;
4027;SDS011;2028;51.346;12.396;2024-02-26T03:47:48;23.80;;;21.60;;
4027;SDS011;2028;51.346;12.396;2024-02-26T03:50:14;25.87;;;23.40;;
4027;SDS011;2028;51.346;12.396;2024-02-26T03:52:43;25.48;;;23.08;;
4027;SDS011;2028;51.346;12.396;2024-02-26T03:55:10;25.50;;;22.98;;
4027;SDS011;2028;51.346;12.396;2024-02-26T03:57:36;27.53;;;24.83;;
4027;SDS011;2028;51.346;12.396;2024-02-26T04:00:02;26.15;;;23.75;;
4027;SDS011;2028;51.346;12.396;2024-02-26T04:02:28;27.00;;;24.40;;
4027;SDS011;2028;51.346;12.396;2024-02-26T04:04:55;28.13;;;25.42;;
4027;SDS011;2028;51.346;12.396;2024-02-26T04:07:21;28.00;;;25.25;;
4027;SDS011;2028;51.346;12.396;2024-02-26T04:09:47;29.33;;;26.63;;
4027;SDS011;2028;51.346;12.396;2024-02-26T04:12:14;30.80;;;27.52;;
4027;SDS011;2028;51.346;12.396;2024-02-26T04:14:40;30.63;;;27.83;;
4027;SDS011;2028;51.346;12.396;2024-02-26T04:17:06;30.52;;;27.70;;
4027;SDS011;2028;51.346;12.396;2024-02-26T04:19:32;32.78;;;29.23;;
4027;SDS011;2028;51.346;12.396;2024-02-26T04:21:59;31.02;;;27.90;;
4027;SDS011;2028;51.346;12.396;2024-02-26T04:24:25;32.97;;;29.77;;
4027;SDS011;2028;51.346;12.396;2024-02-26T04:26:52;30.83;;;28.02;;
4027;SDS011;2028;51.346;12.396;2024-02-26T04:29:18;31.95;;;28.85;;
4027;SDS011;2028;51.346;12.396;2024-02-26T04:31:44;32.10;;;29.02;;
4027;SDS011;2028;51.346;12.396;2024-02-26T04:34:12;32.13;;;29.02;;
4027;SDS011;2028;51.346;12.396;2024-02-26T04:36:38;33.15;;;29.95;;
4027;SDS011;2028;51.346;12.396;2024-02-26T04:39:04;33.92;;;30.60;;
4027;SDS011;2028;51.346;12.396;2024-02-26T04:41:31;32.05;;;29.00;;
4027;SDS011;2028;51.346;12.396;2024-02-26T04:43:58;32.20;;;28.98;;
4027;SDS011;2028;51.346;12.396;2024-02-26T04:46:23;34.97;;;31.53;;
4027;SDS011;2028;51.346;12.396;2024-02-26T04:48:50;33.28;;;30.05;;
4027;SDS011;2028;51.346;12.396;2024-02-26T04:51:16;33.42;;;30.13;;
4027;SDS011;2028;51.346;12.396;2024-02-26T04:53:43;34.10;;;30.88;;
4027;SDS011;2028;51.346;12.396;2024-02-26T04:56:09;33.67;;;30.40;;
4027;SDS011;2028;51.346;12.396;2024-02-26T04:58:35;32.00;;;29.15;;
4027;SDS011;2028;51.346;12.396;2024-02-26T05:01:01;32.67;;;29.55;;
4027;SDS011;2028;51.346;12.396;2024-02-26T05:03:28;34.47;;;31.17;;
4027;SDS011;2028;51.346;12.396;2024-02-26T05:05:55;33.72;;;30.52;;
4027;SDS011;2028;51.346;12.396;2024-02-26T05:08:23;32.78;;;29.58;;
4027;SDS011;2028;51.346;12.396;2024-02-26T05:10:49;31.50;;;28.50;;
4027;SDS011;2028;51.346;12.396;2024-02-26T05:13:15;34.33;;;30.93;;
4027;SDS011;2028;51.346;12.396;2024-02-26T05:15:43;32.33;;;29.23;;
4027;SDS011;2028;51.346;12.396;2024-02-26T05:18:10;31.70;;;28.55;;
4027;SDS011;2028;51.346;12.396;2024-02-26T05:20:36;32.95;;;29.83;;
4027;SDS011;2028;51.346;12.396;2024-02-26T05:23:03;34.70;;;31.17;;
4027;SDS011;2028;51.346;12.396;2024-02-26T05:25:29;32.88;;;29.40;;
4027;SDS011;2028;51.346;12.396;2024-02-26T05:27:56;32.08;;;28.50;;
4027;SDS011;2028;51.346;12.396;2024-02-26T05:30:22;32.53;;;29.45;;
4027;SDS011;2028;51.346;12.396;2024-02-26T05:32:48;33.43;;;30.13;;
4027;SDS011;2028;51.346;12.396;2024-02-26T05:35:14;32.60;;;29.27;;
4027;SDS011;2028;51.346;12.396;2024-02-26T05:37:41;30.15;;;27.05;;
4027;SDS011;2028;51.346;12.396;2024-02-26T05:40:07;30.20;;;27.33;;
4027;SDS011;2028;51.346;12.396;2024-02-26T05:42:33;30.58;;;27.63;;
4027;SDS011;2028;51.346;12.396;2024-02-26T05:44:59;30.50;;;27.50;;
4027;SDS011;2028;51.346;12.396;2024-02-26T05:47:34;32.25;;;28.95;;
4027;SDS011;2028;51.346;12.396;2024-02-26T05:50:00;32.33;;;29.17;;
4027;SDS011;2028;51.346;12.396;2024-02-26T05:52:27;30.48;;;27.40;;
4027;SDS011;2028;51.346;12.396;2024-02-26T05:54:54;30.58;;;27.58;;
4027;SDS011;2028;51.346;12.396;2024-02-26T05:57:21;32.90;;;29.70;;
4027;SDS011;2028;51.346;12.396;2024-02-26T05:59:47;31.33;;;28.27;;
4027;SDS011;2028;51.346;12.396;2024-02-26T06:02:13;43.13;;;38.60;;
4027;SDS011;2028;51.346;12.396;2024-02-26T06:04:39;30.80;;;27.90;;
4027;SDS011;2028;51.346;12.396;2024-02-26T06:07:05;29.90;;;26.88;;
4027;SDS011;2028;51.346;12.396;2024-02-26T06:09:32;30.88;;;27.88;;
4027;SDS011;2028;51.346;12.396;2024-02-26T06:11:58;29.00;;;26.30;;
4027;SDS011;2028;51.346;12.396;2024-02-26T06:14:24;30.10;;;27.20;;
4027;SDS011;2028;51.346;12.396;2024-02-26T06:16:51;29.67;;;26.88;;
4027;SDS011;2028;51.346;12.396;2024-02-26T06:19:17;28.85;;;26.08;;
4027;SDS011;2028;51.346;12.396;2024-02-26T06:21:43;29.02;;;26.40;;
4027;SDS011;2028;51.346;12.396;2024-02-26T06:24:09;31.05;;;28.08;;
4027;SDS011;2028;51.346;12.396;2024-02-26T06:26:35;30.83;;;27.83;;
4027;SDS011;2028;51.346;12.396;2024-02-26T06:29:02;28.30;;;25.63;;
4027;SDS011;2028;51.346;12.396;2024-02-26T06:31:28;28.88;;;26.17;;
4027;SDS011;2028;51.346;12.396;2024-02-26T06:33:54;28.13;;;25.52;;
4027;SDS011;2028;51.346;12.396;2024-02-26T06:36:21;28.58;;;25.70;;
4027;SDS011;2028;51.346;12.396;2024-02-26T06:38:48;28.83;;;25.75;;
4027;SDS011;2028;51.346;12.396;2024-02-26T06:41:14;28.08;;;25.38;;
4027;SDS011;2028;51.346;12.396;2024-02-26T06:43:40;27.83;;;25.00;;
4027;SDS011;2028;51.346;12.396;2024-02-26T06:46:06;26.27;;;23.70;;
4027;SDS011;2028;51.346;12.396;2024-02-26T06:48:32;26.80;;;24.20;;
4027;SDS011;2028;51.346;12.396;2024-02-26T06:50:59;26.73;;;24.27;;
4027;SDS011;2028;51.346;12.396;2024-02-26T06:53:25;26.85;;;24.05;;
4027;SDS011;2028;51.346;12.396;2024-02-26T06:55:52;25.67;;;22.98;;
4027;SDS011;2028;51.346;12.396;2024-02-26T06:58:18;29.52;;;24.95;;
4027;SDS011;2028;51.346;12.396;2024-02-26T07:00:44;29.02;;;24.73;;
4027;SDS011;2028;51.346;12.396;2024-02-26T07:03:11;24.40;;;21.90;;
4027;SDS011;2028;51.346;12.396;2024-02-26T07:05:39;25.52;;;22.98;;
4027;SDS011;2028;51.346;12.396;2024-02-26T07:08:05;28.15;;;23.25;;
4027;SDS011;2028;51.346;12.396;2024-02-26T07:10:32;38.13;;;32.42;;
4027;SDS011;2028;51.346;12.396;2024-02-26T07:12:58;43.50;;;37.67;;
4027;SDS011;2028;51.346;12.396;2024-02-26T07:15:24;24.98;;;21.30;;
4027;SDS011;2028;51.346;12.396;2024-02-26T07:17:50;24.43;;;21.63;;
4027;SDS011;2028;51.346;12.396;2024-02-26T07:20:16;26.70;;;20.65;;
4027;SDS011;2028;51.346;12.396;2024-02-26T07:22:43;22.55;;;20.25;;
4027;SDS011;2028;51.346;12.396;2024-02-26T07:25:10;22.70;;;20.35;;
4027;SDS011;2028;51.346;12.396;2024-02-26T07:27:39;25.80;;;20.27;;
4027;SDS011;2028;51.346;12.396;2024-02-26T07:30:06;25.13;;;20.40;;
4027;SDS011;2028;51.346;12.396;2024-02-26T07:32:33;23.65;;;21.10;;
4027;SDS011;2028;51.346;12.396;2024-02-26T07:35:00;24.63;;;20.15;;
4027;SDS011;2028;51.346;12.396;2024-02-26T07:37:26;22.20;;;19.58;;
4027;SDS011;2028;51.346;12.396;2024-02-26T07:39:52;21.02;;;18.92;;
4027;SDS011;2028;51.346;12.396;2024-02-26T07:42:19;20.77;;;18.77;;
4027;SDS011;2028;51.346;12.396;2024-02-26T07:44:46;20.58;;;18.35;;
4027;SDS011;2028;51.346;12.396;2024-02-26T07:47:12;20.05;;;18.02;;
4027;SDS011;2028;51.346;12.396;2024-02-26T07:49:39;20.27;;;18.27;;
4027;SDS011;2028;51.346;12.396;2024-02-26T07:52:05;19.97;;;17.93;;
4027;SDS011;2028;51.346;12.396;2024-02-26T07:54:32;18.70;;;16.83;;
4027;SDS011;2028;51.346;12.396;2024-02-26T07:56:58;18.63;;;15.85;;
4027;SDS011;2028;51.346;12.396;2024-02-26T07:59:24;18.48;;;16.50;;
4027;SDS011;2028;51.346;12.396;2024-02-26T08:01:51;16.73;;;15.03;;
4027;SDS011;2028;51.346;12.396;2024-02-26T08:04:17;16.87;;;15.27;;
4027;SDS011;2028;51.346;12.396;2024-02-26T08:06:43;17.20;;;15.13;;
4027;SDS011;2028;51.346;12.396;2024-02-26T08:09:09;16.70;;;15.10;;
4027;SDS011;2028;51.346;12.396;2024-02-26T08:11:38;17.43;;;15.70;;
4027;SDS011;2028;51.346;12.396;2024-02-26T08:14:04;16.10;;;14.40;;
4027;SDS011;2028;51.346;12.396;2024-02-26T08:16:30;17.58;;;15.55;;
4027;SDS011;2028;51.346;12.396;2024-02-26T08:18:57;14.97;;;13.50;;
4027;SDS011;2028;51.346;12.396;2024-02-26T08:21:23;17.53;;;15.77;;
4027;SDS011;2028;51.346;12.396;2024-02-26T08:23:49;15.70;;;14.20;;
4027;SDS011;2028;51.346;12.396;2024-02-26T08:26:16;16.30;;;14.70;;
4027;SDS011;2028;51.346;12.396;2024-02-26T08:28:42;17.43;;;15.23;;
4027;SDS011;2028;51.346;12.396;2024-02-26T08:31:10;28.80;;;25.77;;
4027;SDS011;2028;51.346;12.396;2024-02-26T08:33:36;16.40;;;14.70;;
4027;SDS011;2028;51.346;12.396;2024-02-26T08:36:05;15.67;;;14.07;;
4027;SDS011;2028;51.346;12.396;2024-02-26T08:38:32;15.90;;;14.07;;
4027;SDS011;2028;51.346;12.396;2024-02-26T08:41:00;23.50;;;18.30;;
4027;SDS011;2028;51.346;12.396;2024-02-26T08:43:28;16.57;;;14.87;;
4027;SDS011;2028;51.346;12.396;2024-02-26T08:45:54;24.43;;;15.37;;
4027;SDS011;2028;51.346;12.396;2024-02-26T08:48:21;17.73;;;15.87;;
4027;SDS011;2028;51.346;12.396;2024-02-26T08:50:47;19.67;;;15.70;;
4027;SDS011;2028;51.346;12.396;2024-02-26T08:53:13;15.93;;;14.13;;
4027;SDS011;2028;51.346;12.396;2024-02-26T08:55:40;13.97;;;12.53;;
4027;SDS011;2028;51.346;12.396;2024-02-26T08:58:06;15.33;;;13.83;;
4027;SDS011;2028;51.346;12.396;2024-02-26T09:00:32;15.73;;;13.07;;
4027;SDS011;2028;51.346;12.396;2024-02-26T09:02:58;15.23;;;13.03;;
4027;SDS011;2028;51.346;12.396;2024-02-26T09:05:25;15.10;;;12.80;;
4027;SDS011;2028;51.346;12.396;2024-02-26T09:07:51;14.07;;;12.07;;
4027;SDS011;2028;51.346;12.396;2024-02-26T09:10:17;14.40;;;12.90;;
4027;SDS011;2028;51.346;12.396;2024-02-26T09:12:44;13.53;;;12.13;;
4027;SDS011;2028;51.346;12.396;2024-02-26T09:15:10;13.70;;;12.27;;
4027;SDS011;2028;51.346;12.396;2024-02-26T09:17:36;14.57;;;11.73;;
4027;SDS011;2028;51.346;12.396;2024-02-26T09:20:03;20.50;;;17.63;;
4027;SDS011;2028;51.346;12.396;2024-02-26T09:22:31;14.23;;;11.43;;
4027;SDS011;2028;51.346;12.396;2024-02-26T09:24:57;11.57;;;9.73;;
4027;SDS011;2028;51.346;12.396;2024-02-26T09:27:23;12.33;;;10.83;;
4027;SDS011;2028;51.346;12.396;2024-02-26T09:29:49;12.27;;;10.07;;
4027;SDS011;2028;51.346;12.396;2024-02-26T09:32:15;13.73;;;9.80;;
4027;SDS011;2028;51.346;12.396;2024-02-26T09:34:43;10.50;;;9.50;;
4027;SDS011;2028;51.346;12.396;2024-02-26T09:37:09;13.00;;;10.30;;
4027;SDS011;2028;51.346;12.396;2024-02-26T09:39:35;11.20;;;10.10;;
4027;SDS011;2028;51.346;12.396;2024-02-26T09:42:03;11.47;;;8.93;;
4027;SDS011;2028;51.346;12.396;2024-02-26T09:44:31;11.83;;;8.63;;
4027;SDS011;2028;51.346;12.396;2024-02-26T09:47:03;11.20;;;8.50;;
4027;SDS011;2028;51.346;12.396;2024-02-26T09:49:31;12.37;;;8.83;;
4027;SDS011;2028;51.346;12.396;2024-02-26T09:51:57;9.67;;;6.93;;
4027;SDS011;2028;51.346;12.396;2024-02-26T09:54:25;9.10;;;6.97;;
4027;SDS011;2028;51.346;12.396;2024-02-26T09:56:53;8.50;;;6.70;;
4027;SDS011;2028;51.346;12.396;2024-02-26T09:59:21;7.50;;;6.80;;
4027;SDS011;2028;51.346;12.396;2024-02-26T10:01:48;8.33;;;6.97;;
4027;SDS011;2028;51.346;12.396;2024-02-26T10:04:14;10.10;;;8.20;;
4027;SDS011;2028;51.346;12.396;2024-02-26T10:06:41;14.03;;;8.60;;
4027;SDS011;2028;51.346;12.396;2024-02-26T10:09:09;11.70;;;9.23;;
4027;SDS011;2028;51.346;12.396;2024-02-26T10:11:37;8.93;;;7.80;;
4027;SDS011;2028;51.346;12.396;2024-02-26T10:14:04;11.70;;;8.13;;
4027;SDS011;2028;51.346;12.396;2024-02-26T10:16:30;20.60;;;16.10;;
4027;SDS011;2028;51.346;12.396;2024-02-26T10:18:57;16.93;;;14.67;;
4027;SDS011;2028;51.346;12.396;2024-02-26T10:21:23;11.37;;;7.60;;
4027;SDS011;2028;51.346;12.396;2024-02-26T10:23:50;10.40;;;8.77;;
4027;SDS011;2028;51.346;12.396;2024-02-26T10:26:16;9.10;;;7.90;;
4027;SDS011;2028;51.346;12.396;2024-02-26T10:28:43;13.67;;;8.20;;
4027;SDS011;2028;51.346;12.396;2024-02-26T10:31:09;7.93;;;7.07;;
4027;SDS011;2028;51.346;12.396;2024-02-26T10:33:36;8.67;;;7.73;;
4027;SDS011;2028;51.346;12.396;2024-02-26T10:36:06;8.87;;;7.90;;
4027;SDS011;2028;51.346;12.396;2024-02-26T10:38:33;10.53;;;8.00;;
4027;SDS011;2028;51.346;12.396;2024-02-26T10:41:01;10.50;;;8.23;;
4027;SDS011;2028;51.346;12.396;2024-02-26T10:43:28;14.40;;;9.73;;
4027;SDS011;2028;51.346;12.396;2024-02-26T10:45:55;13.10;;;9.33;;
4027;SDS011;2028;51.346;12.396;2024-02-26T10:48:21;12.27;;;9.27;;
4027;SDS011;2028;51.346;12.396;2024-02-26T10:50:48;19.67;;;14.57;;
4027;SDS011;2028;51.346;12.396;2024-02-26T10:53:26;17.30;;;14.10;;
4027;SDS011;2028;51.346;12.396;2024-02-26T10:55:57;23.17;;;18.50;;
4027;SDS011;2028;51.346;12.396;2024-02-26T10:58:24;8.60;;;7.77;;
4027;SDS011;2028;51.346;12.396;2024-02-26T11:00:51;8.53;;;7.63;;
4027;SDS011;2028;51.346;12.396;2024-02-26T11:03:18;8.60;;;7.13;;
4027;SDS011;2028;51.346;12.396;2024-02-26T11:05:46;12.50;;;8.00;;
4027;SDS011;2028;51.346;12.396;2024-02-26T11:08:17;10.17;;;7.60;;
4027;SDS011;2028;51.346;12.396;2024-02-26T11:10:46;8.40;;;7.60;;
4027;SDS011;2028;51.346;12.396;2024-02-26T11:13:14;11.70;;;8.67;;
4027;SDS011;2028;51.346;12.396;2024-02-26T11:15:40;12.07;;;8.23;;
4027;SDS011;2028;51.346;12.396;2024-02-26T11:18:08;10.00;;;9.00;;
4027;SDS011;2028;51.346;12.396;2024-02-26T11:20:34;9.97;;;8.90;;
4027;SDS011;2028;51.346;12.396;2024-02-26T11:23:05;10.60;;;8.03;;
4027;SDS011;2028;51.346;12.396;2024-02-26T11:25:32;10.27;;;8.53;;
4027;SDS011;2028;51.346;12.396;2024-02-26T11:28:00;10.33;;;8.90;;
4027;SDS011;2028;51.346;12.396;2024-02-26T11:30:30;13.00;;;8.87;;
4027;SDS011;2028;51.346;12.396;2024-02-26T11:32:57;11.70;;;9.77;;
4027;SDS011;2028;51.346;12.396;2024-02-26T11:35:24;10.93;;;9.83;;
4027;SDS011;2028;51.346;12.396;2024-02-26T11:37:54;14.47;;;10.10;;
4027;SDS011;2028;51.346;12.396;2024-02-26T11:40:24;10.63;;;8.03;;
4027;SDS011;2028;51.346;12.396;2024-02-26T11:42:51;10.13;;;7.70;;
4027;SDS011;2028;51.346;12.396;2024-02-26T11:48:03;16.87;;;8.30;;
4027;SDS011;2028;51.346;12.396;2024-02-26T11:50:34;11.40;;;8.53;;
4027;SDS011;2028;51.346;12.396;2024-02-26T11:53:26;14.90;;;7.67;;
4027;SDS011;2028;51.346;12.396;2024-02-26T11:58:41;13.43;;;9.27;;
4027;SDS011;2028;51.346;12.396;2024-02-26T12:04:02;14.20;;;10.80;;
4027;SDS011;2028;51.346;12.396;2024-02-26T12:06:30;14.17;;;10.47;;
4027;SDS011;2028;51.346;12.396;2024-02-26T12:08:56;12.73;;;10.30;;
4027;SDS011;2028;51.346;12.396;2024-02-26T12:11:22;13.50;;;10.27;;
4027;SDS011;2028;51.346;12.396;2024-02-26T12:13:48;15.60;;;10.23;;
4027;SDS011;2028;51.346;12.396;2024-02-26T12:16:34;10.90;;;9.80;;
4027;SDS011;2028;51.346;12.396;2024-02-26T12:19:03;11.03;;;9.93;;
4027;SDS011;2028;51.346;12.396;2024-02-26T12:21:30;11.67;;;9.67;;
4027;SDS011;2028;51.346;12.396;2024-02-26T12:24:06;13.97;;;10.77;;
4027;SDS011;2028;51.346;12.396;2024-02-26T12:26:32;15.27;;;10.73;;
4027;SDS011;2028;51.346;12.396;2024-02-26T12:28:58;13.20;;;11.50;;
4027;SDS011;2028;51.346;12.396;2024-02-26T12:31:24;14.83;;;11.80;;
4027;SDS011;2028;51.346;12.396;2024-02-26T12:33:54;12.27;;;10.17;;
4027;SDS011;2028;51.346;12.396;2024-02-26T12:36:21;17.50;;;13.47;;
4027;SDS011;2028;51.346;12.396;2024-02-26T12:38:49;16.53;;;12.40;;
4027;SDS011;2028;51.346;12.396;2024-02-26T12:41:16;15.03;;;11.90;;
4027;SDS011;2028;51.346;12.396;2024-02-26T12:43:42;11.00;;;9.60;;
4027;SDS011;2028;51.346;12.396;2024-02-26T12:46:08;16.93;;;9.80;;
4027;SDS011;2028;51.346;12.396;2024-02-26T12:48:36;16.93;;;10.10;;
4027;SDS011;2028;51.346;12.396;2024-02-26T12:51:03;12.27;;;10.37;;
4027;SDS011;2028;51.346;12.396;2024-02-26T12:53:30;15.90;;;11.83;;
4027;SDS011;2028;51.346;12.396;2024-02-26T12:55:56;16.43;;;11.83;;
4027;SDS011;2028;51.346;12.396;2024-02-26T12:58:23;16.53;;;13.50;;
4027;SDS011;2028;51.346;12.396;2024-02-26T13:00:53;12.93;;;11.23;;
4027;SDS011;2028;51.346;12.396;2024-02-26T13:03:21;15.97;;;13.83;;
4027;SDS011;2028;51.346;12.396;2024-02-26T13:05:48;13.37;;;10.37;;
4027;SDS011;2028;51.346;12.396;2024-02-26T13:08:18;13.97;;;11.37;;
4027;SDS011;2028;51.346;12.396;2024-02-26T13:10:45;12.97;;;11.60;;
4027;SDS011;2028;51.346;12.396;2024-02-26T13:13:14;13.77;;;11.77;;
4027;SDS011;2028;51.346;12.396;2024-02-26T13:15:46;12.10;;;10.90;;
4027;SDS011;2028;51.346;12.396;2024-02-26T13:18:13;12.80;;;9.20;;
4027;SDS011;2028;51.346;12.396;2024-02-26T13:20:42;11.33;;;9.40;;
4027;SDS011;2028;51.346;12.396;2024-02-26T13:23:12;14.80;;;10.97;;
4027;SDS011;2028;51.346;12.396;2024-02-26T13:25:38;14.27;;;10.07;;
4027;SDS011;2028;51.346;12.396;2024-02-26T13:30:35;13.10;;;10.83;;
4027;SDS011;2028;51.346;12.396;2024-02-26T13:33:11;12.10;;;10.90;;
4027;SDS011;2028;51.346;12.396;2024-02-26T13:35:38;12.47;;;10.20;;
4027;SDS011;2028;51.346;12.396;2024-02-26T13:38:05;13.63;;;11.27;;
4027;SDS011;2028;51.346;12.396;2024-02-26T13:40:31;14.80;;;10.80;;
4027;SDS011;2028;51.346;12.396;2024-02-26T13:42:59;12.00;;;10.27;;
4027;SDS011;2028;51.346;12.396;2024-02-26T13:45:25;11.43;;;10.03;;
4027;SDS011;2028;51.346;12.396;2024-02-26T13:47:51;16.37;;;13.30;;
4027;SDS011;2028;51.346;12.396;2024-02-26T13:50:18;17.37;;;13.07;;
4027;SDS011;2028;51.346;12.396;2024-02-26T13:52:47;21.30;;;14.13;;
4027;SDS011;2028;51.346;12.396;2024-02-26T13:55:18;19.70;;;13.43;;
4027;SDS011;2028;51.346;12.396;2024-02-26T13:57:46;12.43;;;9.67;;
4027;SDS011;2028;51.346;12.396;2024-02-26T14:00:12;10.93;;;8.70;;
4027;SDS011;2028;51.346;12.396;2024-02-26T14:02:39;14.70;;;9.03;;
4027;SDS011;2028;51.346;12.396;2024-02-26T14:05:05;15.23;;;9.17;;
4027;SDS011;2028;51.346;12.396;2024-02-26T14:07:31;13.70;;;10.43;;
4027;SDS011;2028;51.346;12.396;2024-02-26T14:09:58;11.50;;;9.30;;
4027;SDS011;2028;51.346;12.396;2024-02-26T14:12:24;12.70;;;10.53;;
4027;SDS011;2028;51.346;12.396;2024-02-26T14:14:51;12.40;;;10.00;;
4027;SDS011;2028;51.346;12.396;2024-02-26T14:17:23;15.20;;;9.90;;
4027;SDS011;2028;51.346;12.396;2024-02-26T14:19:50;11.67;;;9.13;;
4027;SDS011;2028;51.346;12.396;2024-02-26T14:22:16;17.23;;;12.87;;
4027;SDS011;2028;51.346;12.396;2024-02-26T14:24:42;13.93;;;10.67;;
4027;SDS011;2028;51.346;12.396;2024-02-26T14:27:09;10.73;;;9.63;;
4027;SDS011;2028;51.346;12.396;2024-02-26T14:29:39;12.50;;;9.33;;
4027;SDS011;2028;51.346;12.396;2024-02-26T14:32:07;10.00;;;8.87;;
4027;SDS011;2028;51.346;12.396;2024-02-26T14:34:32;12.77;;;10.90;;
4027;SDS011;2028;51.346;12.396;2024-02-26T14:36:59;15.37;;;11.33;;
4027;SDS011;2028;51.346;12.396;2024-02-26T14:39:25;15.60;;;11.80;;
4027;SDS011;2028;51.346;12.396;2024-02-26T14:41:51;22.57;;;16.93;;
4027;SDS011;2028;51.346;12.396;2024-02-26T14:44:17;24.20;;;18.40;;
4027;SDS011;2028;51.346;12.396;2024-02-26T14:46:44;17.87;;;13.03;;